createdAt,value
2023-05-18T00:00:18.168Z,9.40
2023-05-18T00:02:44.938Z,9.40
2023-05-18T00:05:11.695Z,9.40
2023-05-18T00:07:39.493Z,9.40
2023-05-18T00:10:06.632Z,9.40
2023-05-18T00:12:33.534Z,9.40
2023-05-18T00:15:00.331Z,9.40
2023-05-18T00:17:27.059Z,9.40
2023-05-18T00:19:53.829Z,9.40
2023-05-18T00:22:20.516Z,9.40
2023-05-18T00:24:48.094Z,9.40
2023-05-18T00:27:14.938Z,9.40
2023-05-18T00:29:41.589Z,9.40
2023-05-18T00:32:08.267Z,9.40
2023-05-18T00:34:35.076Z,9.40
2023-05-18T00:37:01.748Z,9.40
2023-05-18T00:39:28.390Z,9.40
2023-05-18T00:41:55.080Z,9.40
2023-05-18T00:44:21.771Z,9.40
2023-05-18T00:46:48.432Z,9.40
2023-05-18T00:49:15.132Z,9.40
2023-05-18T00:51:42.023Z,9.30
2023-05-18T00:54:09.571Z,9.30
2023-05-18T00:56:41.641Z,9.30
2023-05-18T00:59:10.707Z,9.30
2023-05-18T01:01:43.415Z,9.30
2023-05-18T01:04:10.486Z,9.20
2023-05-18T01:06:37.129Z,9.20
2023-05-18T01:09:05.498Z,9.20
2023-05-18T01:11:41.743Z,9.20
2023-05-18T01:14:17.878Z,9.20
2023-05-18T01:17:05.727Z,9.20
2023-05-18T01:19:35.909Z,9.20
2023-05-18T01:22:05.976Z,9.20
2023-05-18T01:24:38.858Z,9.20
2023-05-18T01:27:06.798Z,9.10
2023-05-18T01:29:33.485Z,9.10
2023-05-18T01:32:00.138Z,9.10
2023-05-18T01:34:27.158Z,9.10
2023-05-18T01:36:54.083Z,9.10
2023-05-18T01:39:21.049Z,9.10
2023-05-18T01:41:52.737Z,9.10
2023-05-18T01:44:19.397Z,9.00
2023-05-18T01:47:09.093Z,9.10
2023-05-18T01:49:37.395Z,9.00
2023-05-18T01:52:06.502Z,9.10
2023-05-18T01:54:33.914Z,9.10
2023-05-18T01:57:01.332Z,9.10
2023-05-18T01:59:28.141Z,9.10
2023-05-18T02:01:59.308Z,9.00
2023-05-18T02:04:26.579Z,9.00
2023-05-18T02:06:54.284Z,9.00
2023-05-18T02:09:21.807Z,9.00
2023-05-18T02:11:50.535Z,9.10
2023-05-18T02:14:17.219Z,9.10
2023-05-18T02:16:47.203Z,9.10
2023-05-18T02:19:17.469Z,9.00
2023-05-18T02:21:44.724Z,9.00
2023-05-18T02:24:12.460Z,9.00
2023-05-18T02:26:39.432Z,9.00
2023-05-18T02:29:06.609Z,9.00
2023-05-18T02:31:33.387Z,9.00
2023-05-18T02:34:00.083Z,9.00
2023-05-18T02:36:26.757Z,8.90
2023-05-18T02:38:53.463Z,8.90
2023-05-18T02:41:20.168Z,8.90
2023-05-18T02:43:46.805Z,8.90
2023-05-18T02:46:13.519Z,8.90
2023-05-18T02:48:40.155Z,8.90
2023-05-18T02:51:06.818Z,8.90
2023-05-18T02:53:33.489Z,8.90
2023-05-18T02:56:03.306Z,8.80
2023-05-18T02:58:30.006Z,8.90
2023-05-18T03:00:56.903Z,8.90
2023-05-18T03:03:26.612Z,8.90
2023-05-18T03:05:53.678Z,8.90
2023-05-18T03:08:20.901Z,8.90
2023-05-18T03:10:47.558Z,8.90
2023-05-18T03:13:14.493Z,8.90
2023-05-18T03:15:41.256Z,8.90
2023-05-18T03:18:08.052Z,8.90
2023-05-18T03:20:35.643Z,8.90
2023-05-18T03:23:02.275Z,8.90
2023-05-18T03:25:29.225Z,9.00
2023-05-18T03:27:56.840Z,9.00
2023-05-18T03:30:23.482Z,9.00
2023-05-18T03:32:50.734Z,9.00
2023-05-18T03:35:17.420Z,9.00
2023-05-18T03:37:44.155Z,9.00
2023-05-18T03:40:15.043Z,9.00
2023-05-18T03:42:42.310Z,9.00
2023-05-18T03:45:09.606Z,9.00
2023-05-18T03:47:36.749Z,9.00
2023-05-18T03:50:03.808Z,9.00
2023-05-18T03:52:30.760Z,9.00
2023-05-18T03:54:57.488Z,9.00
2023-05-18T03:57:24.450Z,9.00
2023-05-18T03:59:51.295Z,9.00
2023-05-18T04:02:17.974Z,9.00
2023-05-18T04:04:46.110Z,9.00
2023-05-18T04:07:15.410Z,9.00
2023-05-18T04:09:42.943Z,8.90
2023-05-18T04:12:09.828Z,8.90
2023-05-18T04:14:36.588Z,8.90
2023-05-18T04:17:06.710Z,8.90
2023-05-18T04:19:34.447Z,9.00
2023-05-18T04:22:04.962Z,9.00
2023-05-18T04:24:32.643Z,9.10
2023-05-18T04:27:00.844Z,9.10
2023-05-18T04:29:28.872Z,9.10
2023-05-18T04:32:00.816Z,9.20
2023-05-18T04:34:28.446Z,9.20
2023-05-18T04:36:55.926Z,9.30
2023-05-18T04:39:23.561Z,9.30
2023-05-18T04:41:50.697Z,9.30
2023-05-18T04:44:18.342Z,9.30
2023-05-18T04:46:47.270Z,9.30
2023-05-18T04:49:14.189Z,9.40
2023-05-18T04:51:42.137Z,9.40
2023-05-18T04:54:13.039Z,9.40
2023-05-18T04:56:42.932Z,9.50
2023-05-18T04:59:10.812Z,9.50
2023-05-18T05:01:37.612Z,9.60
2023-05-18T05:04:06.259Z,9.60
2023-05-18T05:06:32.961Z,9.70
2023-05-18T05:08:59.629Z,9.70
2023-05-18T05:11:28.398Z,9.70
2023-05-18T05:13:55.080Z,9.80
2023-05-18T05:16:21.768Z,9.80
2023-05-18T05:18:48.483Z,9.80
2023-05-18T05:21:15.157Z,9.80
2023-05-18T05:23:41.821Z,9.80
2023-05-18T05:26:08.502Z,9.90
2023-05-18T05:28:35.145Z,10.00
2023-05-18T05:31:01.875Z,10.00
2023-05-18T05:33:28.555Z,10.10
2023-05-18T05:35:55.276Z,10.20
2023-05-18T05:38:22.018Z,10.40
2023-05-18T05:40:48.795Z,10.40
2023-05-18T05:43:15.656Z,10.40
2023-05-18T05:45:43.620Z,10.50
2023-05-18T05:48:13.473Z,10.50
2023-05-18T05:50:40.528Z,10.40
2023-05-18T05:53:07.208Z,10.50
2023-05-18T05:55:36.512Z,10.50
2023-05-18T05:58:05.354Z,10.50
2023-05-18T06:00:31.975Z,10.40
2023-05-18T06:02:58.968Z,10.50
2023-05-18T06:05:25.931Z,10.60
2023-05-18T06:07:52.763Z,10.70
2023-05-18T06:10:19.435Z,10.70
2023-05-18T06:12:46.120Z,10.90
2023-05-18T06:15:12.774Z,11.00
2023-05-18T06:17:39.756Z,11.10
2023-05-18T06:20:09.456Z,11.10
2023-05-18T06:22:36.542Z,11.10
2023-05-18T06:25:03.290Z,11.20
2023-05-18T06:27:29.985Z,11.20
2023-05-18T06:29:56.635Z,11.40
2023-05-18T06:32:23.383Z,11.50
2023-05-18T06:34:50.708Z,11.50
2023-05-18T06:37:17.663Z,11.40
2023-05-18T06:39:44.420Z,11.30
2023-05-18T06:42:11.383Z,11.20
2023-05-18T06:44:38.130Z,11.20
2023-05-18T06:47:04.891Z,11.20
2023-05-18T06:49:31.876Z,11.40
2023-05-18T06:51:58.550Z,11.50
2023-05-18T06:54:25.278Z,11.60
2023-05-18T06:56:52.307Z,11.70
2023-05-18T06:59:18.957Z,11.90
2023-05-18T07:01:45.619Z,12.10
2023-05-18T07:04:12.396Z,12.10
2023-05-18T07:06:39.114Z,12.10
2023-05-18T07:09:06.006Z,11.90
2023-05-18T07:11:32.682Z,11.80
2023-05-18T07:13:59.364Z,11.70
2023-05-18T07:16:26.675Z,11.70
2023-05-18T07:18:53.532Z,11.70
2023-05-18T07:21:20.200Z,11.80
2023-05-18T07:23:46.840Z,11.90
2023-05-18T07:26:13.461Z,11.90
2023-05-18T07:28:40.155Z,12.10
2023-05-18T07:31:06.989Z,12.10
2023-05-18T07:33:33.649Z,12.10
2023-05-18T07:36:00.304Z,12.00
2023-05-18T07:38:27.214Z,12.00
2023-05-18T07:40:53.855Z,12.00
2023-05-18T07:43:20.507Z,12.10
2023-05-18T07:45:47.165Z,12.10
2023-05-18T07:48:13.880Z,12.00
2023-05-18T07:50:40.626Z,12.00
2023-05-18T07:53:07.702Z,12.10
2023-05-18T07:55:34.559Z,12.10
2023-05-18T07:58:01.332Z,12.20
2023-05-18T08:00:28.165Z,12.30
2023-05-18T08:02:55.031Z,12.40
2023-05-18T08:05:22.719Z,12.60
2023-05-18T08:07:49.666Z,12.70
2023-05-18T08:10:16.413Z,12.90
2023-05-18T08:12:43.066Z,13.00
2023-05-18T08:15:10.520Z,13.00
2023-05-18T08:17:37.338Z,13.10
2023-05-18T08:20:05.145Z,13.20
2023-05-18T08:22:31.783Z,13.00
2023-05-18T08:25:00.932Z,13.10
2023-05-18T08:27:28.405Z,13.20
2023-05-18T08:29:55.062Z,13.20
2023-05-18T08:32:21.861Z,13.00
2023-05-18T08:34:51.598Z,13.10
2023-05-18T08:37:18.367Z,13.20
2023-05-18T08:39:46.391Z,13.30
2023-05-18T08:42:13.105Z,13.10
2023-05-18T08:44:48.185Z,13.30
2023-05-18T08:47:15.341Z,13.50
2023-05-18T08:49:42.771Z,13.40
2023-05-18T08:52:09.584Z,13.60
2023-05-18T08:54:36.848Z,13.90
2023-05-18T08:57:06.383Z,14.10
2023-05-18T08:59:33.488Z,14.20
2023-05-18T09:02:00.403Z,14.00
2023-05-18T09:04:27.793Z,14.20
2023-05-18T09:06:54.654Z,14.50
2023-05-18T09:09:22.143Z,14.50
2023-05-18T09:11:49.910Z,14.70
2023-05-18T09:14:16.762Z,14.70
2023-05-18T09:16:43.485Z,14.60
2023-05-18T09:19:10.711Z,14.40
2023-05-18T09:21:37.398Z,14.40
2023-05-18T09:24:04.654Z,14.20
2023-05-18T09:26:31.636Z,14.20
2023-05-18T09:28:59.539Z,14.30
2023-05-18T09:31:27.593Z,14.20
2023-05-18T09:33:54.795Z,14.40
2023-05-18T09:36:26.112Z,14.40
2023-05-18T09:38:53.096Z,14.50
2023-05-18T09:41:19.922Z,14.50
2023-05-18T09:43:51.461Z,14.40
2023-05-18T09:46:18.973Z,14.40
2023-05-18T09:48:46.639Z,14.60
2023-05-18T09:51:16.583Z,14.50
2023-05-18T09:53:53.150Z,14.60
2023-05-18T09:56:19.911Z,14.90
2023-05-18T09:58:47.050Z,14.90
2023-05-18T10:01:13.890Z,14.90
2023-05-18T10:03:40.883Z,14.90
2023-05-18T10:06:09.114Z,14.80
2023-05-18T10:08:36.574Z,14.90
2023-05-18T10:11:03.801Z,15.00
2023-05-18T10:13:31.860Z,14.90
2023-05-18T10:15:59.779Z,14.90
2023-05-18T10:18:27.339Z,14.80
2023-05-18T10:20:55.578Z,14.90
2023-05-18T10:23:23.547Z,15.00
2023-05-18T10:25:51.204Z,15.00
2023-05-18T10:28:20.277Z,15.00
2023-05-18T10:30:47.321Z,15.10
2023-05-18T10:33:27.904Z,15.20
2023-05-18T10:35:55.617Z,15.40
2023-05-18T10:38:23.896Z,15.40
2023-05-18T10:40:51.967Z,15.60
2023-05-18T10:43:20.881Z,15.70
2023-05-18T10:45:53.724Z,15.80
2023-05-18T10:48:21.340Z,15.70
2023-05-18T10:50:49.587Z,15.50
2023-05-18T10:53:20.042Z,15.50
2023-05-18T10:55:50.647Z,15.50
2023-05-18T10:58:21.651Z,15.40
2023-05-18T11:00:54.117Z,15.30
2023-05-18T11:03:21.146Z,15.30
2023-05-18T11:05:52.351Z,15.30
2023-05-18T11:08:26.614Z,15.20
2023-05-18T11:11:07.780Z,15.30
2023-05-18T11:13:35.546Z,15.40
2023-05-18T11:16:05.000Z,15.70
2023-05-18T11:18:37.760Z,15.70
2023-05-18T11:21:04.679Z,15.60
2023-05-18T11:23:32.016Z,15.50
2023-05-18T11:26:03.074Z,15.50
2023-05-18T11:28:29.714Z,15.70
2023-05-18T11:30:56.500Z,15.70
2023-05-18T11:33:23.309Z,15.80
2023-05-18T11:36:07.485Z,15.90
2023-05-18T11:38:52.965Z,15.90
2023-05-18T11:41:35.295Z,15.80
2023-05-18T11:44:18.608Z,15.70
2023-05-18T11:46:55.595Z,15.80
2023-05-18T11:49:23.690Z,15.90
2023-05-18T11:51:58.894Z,16.00
2023-05-18T11:54:26.339Z,16.20
2023-05-18T11:56:53.158Z,16.20
2023-05-18T11:59:39.153Z,15.90
2023-05-18T12:02:06.184Z,15.80
2023-05-18T12:04:34.045Z,15.80
2023-05-18T12:07:04.525Z,15.80
2023-05-18T12:09:32.019Z,15.90
2023-05-18T12:11:58.692Z,16.00
2023-05-18T12:14:26.492Z,15.90
2023-05-18T12:16:53.672Z,15.70
2023-05-18T12:19:22.094Z,15.60
2023-05-18T12:21:48.843Z,15.60
2023-05-18T12:24:15.560Z,15.60
2023-05-18T12:26:42.251Z,15.50
2023-05-18T12:29:10.407Z,15.40
2023-05-18T12:31:39.835Z,15.30
2023-05-18T12:34:07.392Z,15.40
2023-05-18T12:36:34.024Z,15.50
2023-05-18T12:39:01.322Z,15.60
2023-05-18T12:41:28.349Z,15.50
2023-05-18T12:43:55.431Z,15.50
2023-05-18T12:46:25.754Z,15.70
2023-05-18T12:48:56.688Z,15.70
2023-05-18T12:51:23.484Z,15.80
2023-05-18T12:53:50.730Z,15.80
2023-05-18T12:56:18.215Z,15.90
2023-05-18T12:58:55.588Z,16.00
2023-05-18T13:01:24.903Z,16.10
2023-05-18T13:03:55.335Z,16.20
2023-05-18T13:06:22.097Z,16.10
2023-05-18T13:08:48.831Z,16.10
2023-05-18T13:11:16.728Z,15.80
2023-05-18T13:13:59.293Z,15.90
2023-05-18T13:16:26.333Z,16.10
2023-05-18T13:18:59.916Z,16.10
2023-05-18T13:21:26.650Z,16.10
2023-05-18T13:23:53.398Z,16.00
2023-05-18T13:26:21.879Z,16.10
2023-05-18T13:28:49.637Z,16.20
2023-05-18T13:31:16.324Z,16.20
2023-05-18T13:33:43.056Z,16.20
2023-05-18T13:36:09.814Z,16.20
2023-05-18T13:38:37.416Z,16.20
2023-05-18T13:41:04.848Z,16.10
2023-05-18T13:43:32.108Z,16.10
2023-05-18T13:45:59.143Z,15.90
2023-05-18T13:48:27.769Z,15.80
2023-05-18T13:50:54.785Z,15.60
2023-05-18T13:53:21.468Z,15.50
2023-05-18T13:55:48.506Z,15.50
2023-05-18T13:58:15.203Z,15.60
2023-05-18T14:00:42.087Z,15.60
2023-05-18T14:03:09.940Z,15.70
2023-05-18T14:05:37.038Z,15.70
2023-05-18T14:08:03.836Z,15.50
2023-05-18T14:10:30.830Z,15.30
2023-05-18T14:12:57.790Z,15.30
2023-05-18T14:15:24.735Z,15.20
2023-05-18T14:17:51.523Z,15.20
2023-05-18T14:20:19.695Z,15.20
2023-05-18T14:22:46.491Z,15.20
2023-05-18T14:25:13.116Z,15.30
2023-05-18T14:27:39.760Z,15.30
2023-05-18T14:30:06.854Z,15.20
2023-05-18T14:32:33.583Z,15.00
2023-05-18T14:35:00.308Z,14.90
2023-05-18T14:37:26.998Z,14.80
2023-05-18T14:39:53.660Z,14.80
2023-05-18T14:42:20.439Z,14.80
2023-05-18T14:44:47.246Z,14.70
2023-05-18T14:47:13.964Z,14.60
2023-05-18T14:49:40.708Z,14.50
2023-05-18T14:52:07.400Z,14.60
2023-05-18T14:54:34.280Z,14.60
2023-05-18T14:57:01.337Z,14.60
2023-05-18T14:59:28.072Z,14.50
2023-05-18T15:01:54.771Z,14.60
2023-05-18T15:04:22.160Z,14.50
2023-05-18T15:06:49.583Z,14.60
2023-05-18T15:09:16.338Z,14.70
2023-05-18T15:11:43.089Z,14.70
2023-05-18T15:14:09.974Z,14.50
2023-05-18T15:16:36.828Z,14.40
2023-05-18T15:19:05.210Z,14.40
2023-05-18T15:21:31.998Z,14.30
2023-05-18T15:23:58.711Z,14.40
2023-05-18T15:26:26.004Z,14.40
2023-05-18T15:28:52.842Z,14.30
2023-05-18T15:31:19.695Z,14.30
2023-05-18T15:33:46.973Z,14.10
2023-05-18T15:36:13.719Z,14.10
2023-05-18T15:38:41.061Z,14.10
2023-05-18T15:41:08.419Z,14.00
2023-05-18T15:43:36.641Z,14.00
2023-05-18T15:46:03.543Z,14.00
2023-05-18T15:48:30.440Z,14.00
2023-05-18T15:50:57.206Z,13.90
2023-05-18T15:53:24.068Z,13.90
2023-05-18T15:55:57.383Z,13.80
2023-05-18T15:58:25.171Z,13.80
2023-05-18T16:00:51.865Z,13.70
2023-05-18T16:03:19.179Z,13.70
2023-05-18T16:05:46.193Z,13.70
2023-05-18T16:08:12.892Z,13.70
2023-05-18T16:10:39.639Z,13.70
2023-05-18T16:13:06.452Z,13.70
2023-05-18T16:15:34.056Z,13.70
2023-05-18T16:18:01.010Z,13.70
2023-05-18T16:20:27.760Z,13.70
2023-05-18T16:22:54.493Z,13.50
2023-05-18T16:25:21.137Z,13.50
2023-05-18T16:27:47.828Z,13.40
2023-05-18T16:30:14.533Z,13.40
2023-05-18T16:32:43.260Z,13.40
2023-05-18T16:35:11.150Z,13.40
2023-05-18T16:37:38.187Z,13.40
2023-05-18T16:40:05.800Z,13.30
2023-05-18T16:42:32.748Z,13.30
2023-05-18T16:44:59.593Z,13.20
2023-05-18T16:47:27.652Z,13.20
2023-05-18T16:49:54.603Z,13.20
2023-05-18T16:52:21.602Z,13.20
2023-05-18T16:54:48.401Z,13.20
2023-05-18T16:57:15.231Z,13.20
2023-05-18T16:59:42.244Z,13.20
2023-05-18T17:02:13.263Z,13.10
2023-05-18T17:04:41.397Z,13.10
2023-05-18T17:07:09.853Z,13.00
2023-05-18T17:09:41.883Z,12.90
2023-05-18T17:12:09.458Z,12.90
2023-05-18T17:14:36.156Z,12.90
2023-05-18T17:17:03.292Z,12.90
2023-05-18T17:19:29.952Z,12.90
2023-05-18T17:21:56.805Z,12.90
2023-05-18T17:24:23.498Z,12.90
2023-05-18T17:26:50.238Z,12.90
2023-05-18T17:29:18.517Z,12.80
2023-05-18T17:31:46.379Z,12.80
2023-05-18T17:34:13.042Z,12.80
2023-05-18T17:36:39.702Z,12.80
2023-05-18T17:39:06.339Z,12.70
2023-05-18T17:41:33.617Z,12.60
2023-05-18T17:44:00.777Z,12.50
2023-05-18T17:46:27.487Z,12.60
2023-05-18T17:48:54.197Z,12.50
2023-05-18T17:51:21.834Z,12.50
2023-05-18T17:53:48.565Z,12.50
2023-05-18T17:56:15.252Z,12.40
2023-05-18T17:58:42.127Z,12.40
2023-05-18T18:01:09.459Z,12.30
2023-05-18T18:03:36.713Z,12.30
2023-05-18T18:06:03.536Z,12.30
2023-05-18T18:08:30.323Z,12.20
2023-05-18T18:10:57.123Z,12.20
2023-05-18T18:13:24.440Z,12.20
2023-05-18T18:15:51.371Z,12.20
2023-05-18T18:18:18.085Z,12.10
2023-05-18T18:20:44.830Z,12.10
2023-05-18T18:23:11.535Z,12.10
2023-05-18T18:25:38.262Z,12.10
2023-05-18T18:28:04.985Z,12.00
2023-05-18T18:30:32.026Z,12.00
2023-05-18T18:32:58.880Z,12.00
2023-05-18T18:35:25.664Z,12.00
2023-05-18T18:37:52.298Z,11.90
2023-05-18T18:40:19.100Z,12.00
2023-05-18T18:42:47.285Z,11.90
2023-05-18T18:45:13.945Z,11.90
2023-05-18T18:47:40.720Z,11.80
2023-05-18T18:50:07.757Z,11.80
2023-05-18T18:52:34.446Z,11.80
2023-05-18T18:55:01.268Z,11.80
2023-05-18T18:57:27.949Z,11.70
2023-05-18T18:59:54.592Z,11.70
2023-05-18T19:02:21.329Z,11.70
2023-05-18T19:04:48.281Z,11.60
2023-05-18T19:07:15.008Z,11.60
2023-05-18T19:09:41.707Z,11.60
2023-05-18T19:12:08.747Z,11.60
2023-05-18T19:14:35.420Z,11.50
2023-05-18T19:17:02.072Z,11.60
2023-05-18T19:19:29.718Z,11.50
2023-05-18T19:21:56.414Z,11.50
2023-05-18T19:24:23.031Z,11.50
2023-05-18T19:26:49.669Z,11.50
2023-05-18T19:29:16.556Z,11.50
2023-05-18T19:31:43.299Z,11.40
2023-05-18T19:34:10.034Z,11.40
2023-05-18T19:36:36.701Z,11.30
2023-05-18T19:39:04.725Z,11.40
2023-05-18T19:41:31.458Z,11.30
2023-05-18T19:43:58.111Z,11.30
2023-05-18T19:46:24.788Z,11.40
2023-05-18T19:48:51.896Z,11.40
2023-05-18T19:51:19.556Z,11.40
2023-05-18T19:53:46.405Z,11.40
2023-05-18T19:56:13.091Z,11.30
2023-05-18T19:58:39.792Z,11.30
2023-05-18T20:01:06.695Z,11.30
2023-05-18T20:03:33.692Z,11.20
2023-05-18T20:06:00.534Z,11.30
2023-05-18T20:08:27.805Z,11.20
2023-05-18T20:10:54.815Z,11.20
2023-05-18T20:13:21.571Z,11.20
2023-05-18T20:15:49.637Z,11.20
2023-05-18T20:18:16.742Z,11.20
2023-05-18T20:20:43.595Z,11.20
2023-05-18T20:23:11.635Z,11.20
2023-05-18T20:25:38.457Z,11.20
2023-05-18T20:28:08.168Z,11.20
2023-05-18T20:30:34.974Z,11.10
2023-05-18T20:33:04.141Z,11.20
2023-05-18T20:35:30.946Z,11.20
2023-05-18T20:37:59.544Z,11.10
2023-05-18T20:40:26.832Z,11.10
2023-05-18T20:42:56.514Z,11.20
2023-05-18T20:45:24.751Z,11.20
2023-05-18T20:47:51.993Z,11.20
2023-05-18T20:50:19.020Z,11.20
2023-05-18T20:52:46.210Z,11.20
2023-05-18T20:55:13.937Z,11.20
2023-05-18T20:57:41.422Z,11.20
2023-05-18T21:00:08.749Z,11.10
2023-05-18T21:02:36.871Z,11.10
2023-05-18T21:05:04.456Z,11.10
2023-05-18T21:07:34.849Z,11.10
2023-05-18T21:10:02.066Z,11.10
2023-05-18T21:12:28.747Z,11.10
2023-05-18T21:14:55.433Z,11.00
2023-05-18T21:17:22.159Z,11.00
2023-05-18T21:19:49.605Z,11.00
2023-05-18T21:22:16.351Z,11.00
2023-05-18T21:24:43.006Z,10.90
2023-05-18T21:27:09.872Z,11.00
2023-05-18T21:29:36.643Z,10.90
2023-05-18T21:32:03.461Z,11.00
2023-05-18T21:34:30.216Z,11.00
2023-05-18T21:36:57.335Z,10.90
2023-05-18T21:39:23.958Z,10.90
2023-05-18T21:41:50.758Z,10.90
2023-05-18T21:44:17.449Z,10.90
2023-05-18T21:46:44.416Z,10.90
2023-05-18T21:49:11.787Z,10.90
2023-05-18T21:51:38.499Z,10.90
2023-05-18T21:54:05.233Z,10.90
2023-05-18T21:56:34.642Z,10.90
2023-05-18T21:59:01.392Z,10.80
2023-05-18T22:01:28.204Z,10.80
2023-05-18T22:03:54.967Z,10.80
2023-05-18T22:06:22.400Z,10.80
2023-05-18T22:08:49.081Z,10.80
2023-05-18T22:11:16.371Z,10.90
2023-05-18T22:13:43.066Z,10.90
2023-05-18T22:16:09.849Z,10.90
2023-05-18T22:18:36.558Z,10.90
2023-05-18T22:21:03.275Z,10.90
2023-05-18T22:23:29.967Z,10.90
2023-05-18T22:25:56.868Z,10.90
2023-05-18T22:28:23.588Z,10.80
2023-05-18T22:30:51.027Z,10.80
2023-05-18T22:33:18.117Z,10.80
2023-05-18T22:35:45.115Z,10.80
2023-05-18T22:38:11.990Z,10.80
2023-05-18T22:40:38.691Z,10.80
2023-05-18T22:43:05.635Z,10.80
2023-05-18T22:45:32.907Z,10.80
2023-05-18T22:48:00.756Z,10.70
2023-05-18T22:50:27.734Z,10.70
2023-05-18T22:52:54.723Z,10.70
2023-05-18T22:55:21.430Z,10.70
2023-05-18T22:57:48.097Z,10.70
2023-05-18T23:00:15.467Z,10.70
2023-05-18T23:02:42.255Z,10.70
2023-05-18T23:05:09.132Z,10.70
2023-05-18T23:07:39.068Z,10.70
2023-05-18T23:10:06.018Z,10.70
2023-05-18T23:12:33.224Z,10.70
2023-05-18T23:15:03.957Z,10.80
2023-05-18T23:17:31.320Z,10.70
2023-05-18T23:19:58.785Z,10.80
2023-05-18T23:22:25.881Z,10.80
2023-05-18T23:24:52.621Z,10.80
2023-05-18T23:27:19.789Z,10.80
2023-05-18T23:29:46.672Z,10.80
2023-05-18T23:32:13.393Z,10.80
2023-05-18T23:34:41.360Z,10.70
2023-05-18T23:37:10.662Z,10.70
2023-05-18T23:39:39.546Z,10.80
2023-05-18T23:42:06.626Z,10.80
2023-05-18T23:44:33.400Z,10.80
2023-05-18T23:47:00.424Z,10.80
2023-05-18T23:49:27.261Z,10.80
2023-05-18T23:51:54.370Z,10.80
2023-05-18T23:54:21.253Z,10.80
2023-05-18T23:56:49.745Z,10.80
2023-05-18T23:59:16.618Z,10.80
